createdAt,value
2018-04-29T00:00:56.666Z,30.75
2018-04-29T00:03:24.191Z,32.78
2018-04-29T00:05:51.700Z,31.12
2018-04-29T00:08:19.210Z,31.55
2018-04-29T00:10:46.731Z,32.45
2018-04-29T00:13:14.370Z,34.33
2018-04-29T00:15:41.887Z,34.33
2018-04-29T00:18:09.414Z,31.70
2018-04-29T00:20:36.937Z,32.65
2018-04-29T00:23:05.211Z,30.70
2018-04-29T00:25:33.503Z,30.58
2018-04-29T00:28:01.023Z,33.00
2018-04-29T00:30:28.526Z,32.70
2018-04-29T00:32:56.045Z,33.88
2018-04-29T00:35:24.338Z,32.70
2018-04-29T00:37:52.627Z,34.58
2018-04-29T00:40:20.123Z,33.47
2018-04-29T00:42:47.639Z,33.67
2018-04-29T00:45:15.158Z,33.28
2018-04-29T00:47:42.659Z,34.83
2018-04-29T00:50:10.220Z,32.20
2018-04-29T00:52:37.850Z,34.92
2018-04-29T00:55:05.361Z,33.55
2018-04-29T00:57:32.859Z,34.28
2018-04-29T01:00:00.384Z,35.28
2018-04-29T01:02:27.911Z,33.47
2018-04-29T01:04:56.182Z,33.90
2018-04-29T01:07:24.459Z,34.35
2018-04-29T01:09:52.715Z,33.83
2018-04-29T01:12:20.217Z,34.53
2018-04-29T01:14:47.739Z,32.40
2018-04-29T01:17:16.019Z,34.10
2018-04-29T01:19:44.295Z,34.30
2018-04-29T01:22:12.583Z,37.40
2018-04-29T01:24:40.863Z,36.53
2018-04-29T01:27:08.363Z,37.03
2018-04-29T01:29:35.879Z,35.88
2018-04-29T01:32:04.143Z,35.85
2018-04-29T01:34:32.415Z,36.72
2018-04-29T01:37:00.715Z,37.35
2018-04-29T01:39:28.219Z,37.30
2018-04-29T01:41:55.714Z,36.25
2018-04-29T01:44:24.006Z,36.60
2018-04-29T01:46:51.514Z,39.28
2018-04-29T01:49:19.007Z,40.25
2018-04-29T01:51:47.279Z,39.80
2018-04-29T01:54:15.579Z,37.25
2018-04-29T01:56:43.099Z,38.50
2018-04-29T01:59:10.590Z,39.33
2018-04-29T02:01:38.851Z,41.40
2018-04-29T02:04:07.131Z,37.95
2018-04-29T02:06:35.403Z,39.60
2018-04-29T02:09:03.683Z,37.90
2018-04-29T02:11:31.963Z,35.95
2018-04-29T02:14:00.226Z,36.42
2018-04-29T02:16:27.736Z,38.33
2018-04-29T02:18:55.247Z,39.17
2018-04-29T02:21:23.521Z,40.22
2018-04-29T02:23:51.791Z,39.85
2018-04-29T02:26:19.311Z,41.53
2018-04-29T02:28:46.922Z,42.67
2018-04-29T02:31:15.269Z,44.45
2018-04-29T02:33:42.727Z,40.00
2018-04-29T02:36:10.315Z,43.63
2018-04-29T02:38:37.803Z,42.55
2018-04-29T02:41:06.104Z,41.40
2018-04-29T02:43:33.710Z,39.53
2018-04-29T02:46:01.980Z,40.92
2018-04-29T02:48:29.495Z,41.00
2018-04-29T02:50:57.080Z,42.55
2018-04-29T02:53:24.523Z,39.95
2018-04-29T02:55:52.065Z,41.72
2018-04-29T02:58:19.576Z,42.28
2018-04-29T03:00:47.068Z,41.42
2018-04-29T03:03:15.396Z,42.60
2018-04-29T03:05:43.720Z,41.58
2018-04-29T03:08:12.042Z,39.08
2018-04-29T03:10:39.552Z,40.45
2018-04-29T03:13:07.047Z,39.90
2018-04-29T03:15:34.551Z,39.88
2018-04-29T03:18:02.828Z,39.20
2018-04-29T03:20:31.091Z,39.25
2018-04-29T03:22:58.627Z,39.85
2018-04-29T03:25:26.192Z,39.15
2018-04-29T03:27:53.804Z,40.70
2018-04-29T03:30:21.340Z,38.80
2018-04-29T03:32:49.626Z,40.22
2018-04-29T03:35:17.892Z,37.95
2018-04-29T03:37:46.167Z,36.15
2018-04-29T03:40:13.684Z,36.25
2018-04-29T03:42:41.252Z,37.70
2018-04-29T03:45:08.763Z,36.20
2018-04-29T03:47:36.286Z,33.70
2018-04-29T03:50:03.803Z,35.20
2018-04-29T03:52:31.303Z,35.47
2018-04-29T03:54:58.819Z,35.85
2018-04-29T03:57:38.163Z,36.25
2018-04-29T04:00:17.636Z,33.63
2018-04-29T04:02:56.991Z,33.72
2018-04-29T04:05:24.526Z,34.90
2018-04-29T04:07:52.025Z,34.55
2018-04-29T04:10:19.515Z,36.03
2018-04-29T04:12:47.025Z,34.78
2018-04-29T04:15:15.298Z,35.13
2018-04-29T04:17:43.580Z,32.92
2018-04-29T04:20:11.854Z,35.63
2018-04-29T04:22:40.127Z,34.63
2018-04-29T04:25:08.439Z,32.60
2018-04-29T04:27:36.054Z,33.05
2018-04-29T04:30:03.567Z,35.15
2018-04-29T04:32:31.071Z,34.83
2018-04-29T04:34:58.591Z,34.05
2018-04-29T04:37:26.091Z,36.13
2018-04-29T04:39:53.602Z,37.95
2018-04-29T04:42:21.121Z,36.05
2018-04-29T04:44:49.395Z,38.45
2018-04-29T04:47:17.671Z,37.20
2018-04-29T04:49:45.951Z,36.50
2018-04-29T04:52:14.220Z,38.08
2018-04-29T04:54:41.734Z,39.78
2018-04-29T04:57:09.295Z,39.83
2018-04-29T04:59:36.799Z,38.70
2018-04-29T05:02:05.087Z,38.50
2018-04-29T05:04:33.411Z,40.65
2018-04-29T05:07:00.939Z,43.40
2018-04-29T05:09:28.450Z,44.35
2018-04-29T05:11:55.952Z,43.87
2018-04-29T05:14:24.327Z,42.42
2018-04-29T05:16:51.876Z,42.70
2018-04-29T05:19:19.406Z,40.92
2018-04-29T05:21:46.903Z,41.35
2018-04-29T05:24:14.415Z,41.33
2018-04-29T05:26:43.426Z,40.83
2018-04-29T05:29:10.991Z,42.67
2018-04-29T05:31:38.495Z,42.40
2018-04-29T05:34:05.992Z,42.03
2018-04-29T05:36:33.495Z,41.65
2018-04-29T05:39:01.291Z,40.10
2018-04-29T05:41:30.473Z,40.60
2018-04-29T05:43:57.979Z,38.20
2018-04-29T05:46:25.492Z,40.75
2018-04-29T05:48:52.993Z,39.42
2018-04-29T05:51:20.494Z,42.38
2018-04-29T05:53:47.995Z,42.40
2018-04-29T05:56:15.523Z,40.33
2018-04-29T05:58:44.699Z,41.20
2018-04-29T06:01:12.215Z,43.17
2018-04-29T06:03:39.714Z,43.00
2018-04-29T06:06:07.248Z,43.83
2018-04-29T06:08:35.537Z,41.35
2018-04-29T06:11:03.803Z,46.33
2018-04-29T06:13:31.312Z,41.80
2018-04-29T06:15:58.992Z,41.67
2018-04-29T06:18:26.502Z,42.00
2018-04-29T06:20:54.768Z,44.42
2018-04-29T06:23:23.181Z,45.03
2018-04-29T06:25:50.774Z,43.75
2018-04-29T06:28:18.307Z,42.97
2018-04-29T06:30:45.824Z,45.92
2018-04-29T06:33:14.166Z,45.28
2018-04-29T06:35:41.663Z,45.35
2018-04-29T06:38:09.950Z,46.08
2018-04-29T06:40:37.463Z,45.38
2018-04-29T06:43:04.959Z,44.58
2018-04-29T06:45:33.271Z,41.63
2018-04-29T06:48:00.771Z,44.17
2018-04-29T06:50:28.267Z,44.45
2018-04-29T06:52:56.534Z,44.45
2018-04-29T06:55:24.807Z,44.97
2018-04-29T06:57:53.135Z,43.50
2018-04-29T07:00:21.419Z,46.22
2018-04-29T07:02:48.955Z,44.80
2018-04-29T07:05:16.460Z,43.83
2018-04-29T07:07:43.971Z,43.65
2018-04-29T07:10:11.488Z,46.10
2018-04-29T07:12:39.764Z,47.20
2018-04-29T07:15:07.310Z,49.50
2018-04-29T07:17:34.823Z,45.63
2018-04-29T07:20:02.372Z,48.25
2018-04-29T07:22:30.618Z,44.63
2018-04-29T07:24:58.903Z,44.30
2018-04-29T07:27:26.428Z,47.67
2018-04-29T07:29:53.939Z,47.17
2018-04-29T07:32:21.451Z,48.08
2018-04-29T07:34:48.964Z,47.38
2018-04-29T07:37:16.488Z,50.72
2018-04-29T07:39:44.845Z,49.63
2018-04-29T07:42:12.479Z,43.85
2018-04-29T07:44:39.986Z,46.33
2018-04-29T07:47:08.303Z,50.20
2018-04-29T07:49:35.851Z,45.60
2018-04-29T07:52:03.437Z,47.10
2018-04-29T07:54:31.667Z,48.13
2018-04-29T07:56:59.939Z,49.85
2018-04-29T07:59:28.431Z,47.97
2018-04-29T08:01:55.997Z,47.53
2018-04-29T08:04:23.611Z,51.83
2018-04-29T08:06:51.301Z,47.90
2018-04-29T08:09:18.769Z,49.13
2018-04-29T08:11:47.034Z,52.47
2018-04-29T08:14:14.547Z,48.30
2018-04-29T08:16:42.193Z,51.03
2018-04-29T08:19:09.717Z,49.03
2018-04-29T08:21:37.991Z,49.13
2018-04-29T08:24:05.581Z,51.35
2018-04-29T08:26:33.090Z,50.58
2018-04-29T08:29:00.605Z,50.10
2018-04-29T08:31:28.165Z,50.72
2018-04-29T08:33:55.674Z,51.63
2018-04-29T08:36:23.197Z,53.75
2018-04-29T08:38:50.741Z,50.05
2018-04-29T08:41:18.251Z,52.05
2018-04-29T08:43:46.599Z,47.72
2018-04-29T08:46:14.120Z,47.45
2018-04-29T08:48:41.661Z,47.40
2018-04-29T08:53:43.160Z,51.05
2018-04-29T08:56:10.679Z,49.42
2018-04-29T08:58:38.971Z,48.85
2018-04-29T09:01:07.259Z,47.30
2018-04-29T09:03:34.932Z,46.42
2018-04-29T09:06:02.383Z,43.58
2018-04-29T09:08:29.916Z,46.50
2018-04-29T09:10:58.204Z,46.05
2018-04-29T09:13:25.723Z,44.05
2018-04-29T09:15:53.250Z,44.90
2018-04-29T09:20:54.721Z,44.80
2018-04-29T09:23:22.236Z,46.70
2018-04-29T09:25:50.518Z,47.88
2018-04-29T09:28:18.052Z,49.20
2018-04-29T09:30:45.565Z,47.35
2018-04-29T09:33:13.074Z,47.80
2018-04-29T09:35:40.647Z,47.08
2018-04-29T09:38:08.934Z,49.20
2018-04-29T09:40:36.443Z,46.90
2018-04-29T09:43:03.969Z,48.55
2018-04-29T09:45:31.487Z,48.70
2018-04-29T09:47:58.995Z,48.63
2018-04-29T09:50:26.539Z,47.17
2018-04-29T09:52:54.060Z,50.00
2018-04-29T09:55:21.582Z,46.67
2018-04-29T09:57:49.145Z,44.90
2018-04-29T10:00:16.659Z,48.72
2018-04-29T10:02:47.785Z,47.53
2018-04-29T10:05:15.321Z,51.35
2018-04-29T10:07:42.840Z,48.30
2018-04-29T10:10:10.379Z,47.45
2018-04-29T10:12:39.048Z,49.45
2018-04-29T10:15:07.327Z,50.10
2018-04-29T10:17:35.611Z,48.15
2018-04-29T10:20:03.907Z,47.05
2018-04-29T10:22:31.419Z,46.00
2018-04-29T10:24:58.923Z,48.70
2018-04-29T10:27:26.449Z,45.38
2018-04-29T10:29:54.010Z,48.33
2018-04-29T10:32:21.578Z,46.20
2018-04-29T10:34:49.059Z,47.45
2018-04-29T10:37:16.574Z,45.88
2018-04-29T10:39:44.109Z,48.28
2018-04-29T10:42:11.663Z,46.83
2018-04-29T10:44:39.186Z,45.03
2018-04-29T10:47:07.458Z,44.13
2018-04-29T10:49:35.758Z,42.15
2018-04-29T10:52:03.262Z,42.05
2018-04-29T10:54:30.811Z,42.15
2018-04-29T10:56:58.357Z,42.00
2018-04-29T10:59:25.875Z,39.17
2018-04-29T11:01:53.383Z,39.05
2018-04-29T11:04:20.976Z,40.70
2018-04-29T11:06:49.271Z,36.88
2018-04-29T11:09:16.795Z,37.67
2018-04-29T11:11:44.407Z,36.53
2018-04-29T11:14:11.929Z,34.60
2018-04-29T11:16:39.447Z,37.43
2018-04-29T11:19:07.744Z,35.80
2018-04-29T11:21:35.292Z,35.80
2018-04-29T11:24:02.811Z,32.38
2018-04-29T11:26:30.341Z,34.03
2018-04-29T11:28:58.664Z,33.80
2018-04-29T11:31:26.175Z,34.35
2018-04-29T11:33:53.753Z,33.97
2018-04-29T11:36:21.279Z,34.92
2018-04-29T11:38:48.796Z,35.10
2018-04-29T11:41:16.347Z,33.25
2018-04-29T11:43:43.867Z,33.60
2018-04-29T11:46:11.363Z,33.23
2018-04-29T11:48:38.916Z,30.88
2018-04-29T11:51:06.427Z,31.47
2018-04-29T11:53:33.943Z,32.75
2018-04-29T11:56:01.478Z,29.85
2018-04-29T11:58:29.771Z,27.95
2018-04-29T12:00:57.295Z,28.15
2018-04-29T12:03:24.819Z,27.70
2018-04-29T12:05:52.337Z,26.90
2018-04-29T12:08:20.615Z,25.90
2018-04-29T12:10:48.163Z,28.80
2018-04-29T12:13:16.451Z,30.13
2018-04-29T12:15:43.996Z,28.67
2018-04-29T12:18:12.298Z,28.97
2018-04-29T12:20:39.808Z,28.77
2018-04-29T12:23:08.107Z,27.20
2018-04-29T12:25:36.420Z,29.08
2018-04-29T12:28:03.919Z,28.13
2018-04-29T12:30:31.426Z,27.50
2018-04-29T12:32:58.948Z,27.03
2018-04-29T12:35:26.471Z,26.80
2018-04-29T12:37:54.052Z,28.20
2018-04-29T12:40:22.851Z,30.07
2018-04-29T12:42:50.366Z,28.90
2018-04-29T12:47:51.738Z,28.50
2018-04-29T12:50:19.342Z,29.37
2018-04-29T12:52:46.873Z,29.12
2018-04-29T12:55:14.788Z,28.33
2018-04-29T12:57:43.083Z,27.73
2018-04-29T13:00:10.619Z,29.13
2018-04-29T13:02:38.147Z,30.70
2018-04-29T13:05:05.684Z,29.57
2018-04-29T13:07:33.192Z,30.07
2018-04-29T13:10:01.537Z,32.47
2018-04-29T13:12:29.093Z,31.73
2018-04-29T13:14:56.628Z,30.90
2018-04-29T13:17:24.144Z,30.67
2018-04-29T13:19:52.430Z,34.03
2018-04-29T13:22:20.712Z,31.87
2018-04-29T13:24:48.986Z,32.92
2018-04-29T13:27:17.294Z,33.80
2018-04-29T13:29:44.799Z,34.28
2018-04-29T13:32:12.297Z,33.87
2018-04-29T13:34:39.836Z,36.05
2018-04-29T13:37:08.135Z,34.45
2018-04-29T13:39:35.650Z,33.28
2018-04-29T13:42:03.181Z,34.17
2018-04-29T13:44:30.706Z,32.90
2018-04-29T13:46:58.221Z,33.70
2018-04-29T13:49:25.848Z,33.00
2018-04-29T13:51:53.350Z,32.67
2018-04-29T13:54:20.875Z,34.67
2018-04-29T13:56:48.379Z,32.70
2018-04-29T13:59:16.671Z,33.90
2018-04-29T14:01:44.256Z,34.47
2018-04-29T14:04:11.755Z,34.28
2018-04-29T14:06:39.279Z,33.87
2018-04-29T14:09:06.808Z,31.37
2018-04-29T14:11:35.071Z,31.17
2018-04-29T14:14:03.361Z,31.03
2018-04-29T14:16:30.908Z,34.77
2018-04-29T14:18:59.260Z,34.73
2018-04-29T14:21:26.802Z,32.70
2018-04-29T14:23:54.351Z,34.50
2018-04-29T14:26:21.863Z,34.00
2018-04-29T14:28:50.156Z,32.73
2018-04-29T14:31:17.720Z,32.77
2018-04-29T14:33:45.986Z,34.50
2018-04-29T14:36:14.250Z,34.57
2018-04-29T14:38:42.555Z,34.40
2018-04-29T14:41:10.089Z,36.27
2018-04-29T14:43:38.369Z,34.70
2018-04-29T14:46:06.662Z,36.30
2018-04-29T14:48:34.159Z,33.60
2018-04-29T14:51:01.668Z,33.87
2018-04-29T14:53:29.973Z,33.70
2018-04-29T14:55:58.044Z,35.37
2018-04-29T14:58:25.543Z,35.70
2018-04-29T15:00:53.062Z,35.73
2018-04-29T15:03:20.587Z,33.05
2018-04-29T15:05:48.867Z,35.60
2018-04-29T15:08:17.197Z,36.27
2018-04-29T15:10:44.699Z,32.50
2018-04-29T15:13:12.971Z,33.50
2018-04-29T15:15:41.286Z,34.40
2018-04-29T15:21:04.691Z,34.13
2018-04-29T15:23:32.979Z,36.20
2018-04-29T15:26:00.506Z,36.77
2018-04-29T15:28:28.059Z,35.23
2018-04-29T15:30:55.563Z,35.03
2018-04-29T15:33:23.067Z,36.87
2018-04-29T15:35:50.708Z,36.40
2018-04-29T15:38:19.091Z,33.80
2018-04-29T15:40:47.367Z,36.77
2018-04-29T15:43:15.656Z,36.43
2018-04-29T15:45:43.166Z,37.80
2018-04-29T15:48:10.670Z,37.13
2018-04-29T15:50:38.219Z,38.10
2018-04-29T15:53:06.527Z,36.90
2018-04-29T15:55:34.061Z,36.13
2018-04-29T15:58:01.597Z,37.23
2018-04-29T16:00:29.103Z,35.70
2018-04-29T16:02:56.610Z,40.03
2018-04-29T16:05:25.059Z,38.60
2018-04-29T16:07:53.184Z,40.67
2018-04-29T16:10:21.459Z,40.47
2018-04-29T16:12:49.773Z,36.53
2018-04-29T16:15:17.274Z,35.67
2018-04-29T16:17:44.784Z,36.43
2018-04-29T16:20:12.300Z,38.73
2018-04-29T16:22:40.566Z,35.93
2018-04-29T16:25:08.098Z,38.40
2018-04-29T16:27:36.455Z,38.80
2018-04-29T16:30:05.507Z,37.27
2018-04-29T16:32:33.791Z,38.77
2018-04-29T16:35:03.365Z,38.80
2018-04-29T16:37:31.791Z,38.43
2018-04-29T16:39:59.335Z,38.70
2018-04-29T16:42:26.863Z,41.50
2018-04-29T16:44:55.187Z,38.63
2018-04-29T16:47:22.687Z,39.00
2018-04-29T16:49:50.217Z,40.50
2018-04-29T16:52:17.766Z,39.50
2018-04-29T16:54:45.274Z,36.93
2018-04-29T16:57:12.779Z,38.73
2018-04-29T16:59:40.328Z,35.70
2018-04-29T17:02:08.603Z,39.17
2018-04-29T17:04:36.870Z,36.87
2018-04-29T17:07:04.391Z,38.27
2018-04-29T17:09:33.346Z,35.83
2018-04-29T17:12:02.465Z,38.83
2018-04-29T17:14:31.468Z,36.50
2018-04-29T17:16:59.030Z,37.40
2018-04-29T17:19:26.612Z,36.63
2018-04-29T17:21:54.155Z,38.65
2018-04-29T17:24:21.869Z,38.60
2018-04-29T17:26:50.135Z,38.17
2018-04-29T17:29:17.699Z,35.40
2018-04-29T17:31:46.586Z,37.50
2018-04-29T17:34:14.119Z,37.40
2018-04-29T17:36:42.662Z,41.40
2018-04-29T17:39:10.153Z,39.40
2018-04-29T17:41:37.719Z,41.83
2018-04-29T17:44:06.277Z,40.90
2018-04-29T17:46:33.762Z,43.95
2018-04-29T17:49:01.303Z,42.93
2018-04-29T17:51:28.847Z,45.47
2018-04-29T17:53:56.368Z,43.90
2018-04-29T17:56:24.680Z,47.20
2018-04-29T17:58:52.199Z,43.80
2018-04-29T18:01:20.495Z,46.03
2018-04-29T18:03:48.038Z,47.60
2018-04-29T18:06:16.312Z,50.80
2018-04-29T18:08:44.643Z,46.47
2018-04-29T18:11:12.188Z,50.30
2018-04-29T18:13:39.714Z,51.20
2018-04-29T18:16:08.003Z,54.50
2018-04-29T18:18:35.520Z,49.77
2018-04-29T18:21:03.067Z,47.45
2018-04-29T18:23:30.619Z,48.30
2018-04-29T18:25:58.190Z,47.92
2018-04-29T18:28:25.730Z,50.65
2018-04-29T18:30:53.239Z,55.55
2018-04-29T18:33:20.767Z,48.78
2018-04-29T18:35:48.296Z,48.13
2018-04-29T18:38:15.811Z,49.15
2018-04-29T18:40:45.172Z,49.72
2018-04-29T18:43:13.271Z,50.70
2018-04-29T18:45:41.644Z,50.45
2018-04-29T18:48:10.672Z,50.03
2018-04-29T18:50:39.684Z,57.08
2018-04-29T18:53:08.673Z,56.80
2018-04-29T18:55:36.453Z,53.78
2018-04-29T18:58:03.975Z,53.75
2018-04-29T19:00:33.043Z,50.83
2018-04-29T19:03:02.762Z,49.03
2018-04-29T19:05:42.013Z,48.08
2018-04-29T19:08:13.123Z,46.95
2018-04-29T19:10:42.167Z,45.72
2018-04-29T19:13:10.219Z,45.08
2018-04-29T19:15:37.906Z,45.80
2018-04-29T19:18:06.481Z,46.42
2018-04-29T19:20:35.466Z,42.88
2018-04-29T19:23:06.499Z,45.38
2018-04-29T19:25:35.968Z,47.03
2018-04-29T19:28:04.233Z,44.17
2018-04-29T19:30:35.315Z,44.05
2018-04-29T19:33:07.934Z,43.15
2018-04-29T19:35:39.146Z,44.63
2018-04-29T19:38:09.077Z,45.28
2018-04-29T19:40:40.640Z,42.97
2018-04-29T19:43:08.794Z,44.50
2018-04-29T19:45:40.423Z,41.50
2018-04-29T19:48:09.587Z,39.45
2018-04-29T19:50:39.947Z,37.67
2018-04-29T19:53:08.675Z,34.28
2018-04-29T19:55:36.348Z,32.17
2018-04-29T19:58:04.093Z,33.75
2018-04-29T20:00:32.464Z,32.80
2018-04-29T20:03:01.957Z,30.58
2018-04-29T20:05:32.737Z,32.05
2018-04-29T20:08:00.668Z,28.90
2018-04-29T20:10:28.189Z,29.33
2018-04-29T20:12:56.883Z,29.40
2018-04-29T20:15:27.423Z,28.87
2018-04-29T20:17:56.559Z,25.23
2018-04-29T20:20:39.275Z,27.55
2018-04-29T20:23:07.382Z,26.75
2018-04-29T20:25:37.492Z,24.83
2018-04-29T20:28:05.925Z,27.95
2018-04-29T20:30:35.988Z,25.62
2018-04-29T20:33:07.131Z,26.02
2018-04-29T20:35:35.293Z,26.17
2018-04-29T20:38:03.475Z,27.23
2018-04-29T20:40:32.430Z,27.40
2018-04-29T20:43:02.121Z,27.67
2018-04-29T20:45:32.082Z,26.75
2018-04-29T20:48:00.198Z,26.95
2018-04-29T20:50:27.975Z,29.02
2018-04-29T20:52:56.082Z,27.95
2018-04-29T20:55:24.978Z,28.45
2018-04-29T20:57:53.355Z,29.75
2018-04-29T21:00:23.304Z,28.33
2018-04-29T21:02:51.625Z,30.67
2018-04-29T21:05:20.431Z,32.83
2018-04-29T21:07:47.972Z,31.33
2018-04-29T21:10:17.172Z,29.75
2018-04-29T21:12:45.472Z,29.30
2018-04-29T21:15:13.017Z,29.90
2018-04-29T21:17:42.055Z,30.90
2018-04-29T21:20:10.459Z,31.23
2018-04-29T21:22:37.978Z,32.53
2018-04-29T21:25:05.524Z,32.63
2018-04-29T21:27:33.158Z,33.30
2018-04-29T21:30:00.594Z,31.75
2018-04-29T21:32:28.125Z,29.95
2018-04-29T21:34:55.637Z,29.63
2018-04-29T21:37:23.235Z,29.37
2018-04-29T21:39:51.311Z,29.90
2018-04-29T21:42:18.823Z,30.20
2018-04-29T21:44:47.123Z,29.75
2018-04-29T21:47:14.640Z,29.83
2018-04-29T21:49:42.157Z,27.90
2018-04-29T21:52:10.743Z,27.77
2018-04-29T21:54:38.259Z,29.17
2018-04-29T21:57:06.727Z,27.90
2018-04-29T21:59:34.275Z,28.15
2018-04-29T22:02:02.360Z,29.08
2018-04-29T22:04:30.475Z,29.10
2018-04-29T22:06:58.534Z,28.02
2018-04-29T22:09:26.051Z,31.35
2018-04-29T22:11:53.608Z,29.97
2018-04-29T22:14:21.178Z,31.40
2018-04-29T22:16:49.019Z,28.80
2018-04-29T22:19:16.584Z,27.95
2018-04-29T22:21:44.131Z,27.48
2018-04-29T22:24:11.860Z,29.33
2018-04-29T22:26:39.602Z,27.55
2018-04-29T22:29:08.775Z,28.93
2018-04-29T22:31:38.208Z,29.10
2018-04-29T22:34:06.559Z,28.80
2018-04-29T22:36:34.405Z,28.30
2018-04-29T22:39:03.295Z,31.55
2018-04-29T22:41:30.803Z,26.30
2018-04-29T22:44:01.528Z,28.70
2018-04-29T22:46:29.812Z,29.87
2018-04-29T22:49:00.114Z,29.48
2018-04-29T22:51:30.059Z,29.10
2018-04-29T22:53:58.447Z,29.10
2018-04-29T22:56:26.119Z,29.20
2018-04-29T22:58:54.841Z,27.23
2018-04-29T23:01:24.316Z,28.27
2018-04-29T23:04:00.376Z,29.23
2018-04-29T23:06:30.375Z,28.17
2018-04-29T23:09:02.768Z,29.03
2018-04-29T23:11:31.254Z,27.75
2018-04-29T23:13:59.855Z,27.93
2018-04-29T23:16:29.044Z,26.50
2018-04-29T23:18:58.857Z,30.40
2018-04-29T23:21:26.963Z,33.20
2018-04-29T23:23:54.862Z,32.95
2018-04-29T23:26:23.572Z,29.97
2018-04-29T23:28:54.983Z,33.57
2018-04-29T23:31:25.138Z,31.95
2018-04-29T23:33:53.175Z,33.23
2018-04-29T23:36:22.399Z,32.23
2018-04-29T23:38:49.939Z,32.50
2018-04-29T23:41:17.818Z,30.27
2018-04-29T23:43:46.710Z,28.67
2018-04-29T23:46:15.427Z,30.90
2018-04-29T23:48:44.955Z,32.70
2018-04-29T23:51:15.823Z,31.07
2018-04-29T23:53:43.840Z,33.27
2018-04-29T23:56:12.355Z,28.60
2018-04-29T23:58:42.441Z,29.02
